createdAt,value
2018-03-31T00:01:30.829Z,10.87
2018-03-31T00:03:58.561Z,11.70
2018-03-31T00:06:25.679Z,10.30
2018-03-31T00:08:52.645Z,10.90
2018-03-31T00:11:19.592Z,11.00
2018-03-31T00:13:46.571Z,12.30
2018-03-31T00:16:13.527Z,13.30
2018-03-31T00:18:40.584Z,12.40
2018-03-31T00:21:07.519Z,13.27
2018-03-31T00:23:34.466Z,13.33
2018-03-31T00:26:01.517Z,12.87
2018-03-31T00:28:28.563Z,12.37
2018-03-31T00:30:55.594Z,12.93
2018-03-31T00:33:22.525Z,13.20
2018-03-31T00:35:49.516Z,13.30
2018-03-31T00:38:16.459Z,13.27
2018-03-31T00:40:43.515Z,13.17
2018-03-31T00:43:10.467Z,13.67
2018-03-31T00:45:37.429Z,14.70
2018-03-31T00:48:04.484Z,13.97
2018-03-31T00:50:31.424Z,13.27
2018-03-31T00:52:58.372Z,12.97
2018-03-31T00:55:25.441Z,13.30
2018-03-31T00:57:52.392Z,12.50
2018-03-31T01:00:19.423Z,13.43
2018-03-31T01:02:46.367Z,13.23
2018-03-31T01:05:13.329Z,13.17
2018-03-31T01:07:40.378Z,12.63
2018-03-31T01:10:07.432Z,13.60
2018-03-31T01:12:34.375Z,12.67
2018-03-31T01:15:01.332Z,13.20
2018-03-31T01:17:28.277Z,14.17
2018-03-31T01:19:55.327Z,13.20
2018-03-31T01:22:22.271Z,12.67
2018-03-31T01:24:49.327Z,11.93
2018-03-31T01:27:16.360Z,12.10
2018-03-31T01:29:43.299Z,11.87
2018-03-31T01:32:10.244Z,12.27
2018-03-31T01:34:37.232Z,11.97
2018-03-31T01:37:04.289Z,12.33
2018-03-31T01:39:31.315Z,13.70
2018-03-31T01:41:58.294Z,13.10
2018-03-31T01:44:25.349Z,11.93
2018-03-31T01:46:52.307Z,10.10
2018-03-31T01:49:19.339Z,12.50
2018-03-31T01:51:46.294Z,10.87
2018-03-31T01:54:13.420Z,9.50
2018-03-31T01:56:40.403Z,10.97
2018-03-31T01:59:07.349Z,10.67
2018-03-31T02:01:34.410Z,10.50
2018-03-31T02:04:01.365Z,10.50
2018-03-31T02:06:28.426Z,9.83
2018-03-31T02:08:55.356Z,10.83
2018-03-31T02:11:22.311Z,10.67
2018-03-31T02:13:49.324Z,10.60
2018-03-31T02:16:16.275Z,12.10
2018-03-31T02:18:43.316Z,11.33
2018-03-31T02:21:10.272Z,11.10
2018-03-31T02:23:37.329Z,11.53
2018-03-31T02:26:04.285Z,9.80
2018-03-31T02:28:31.231Z,10.00
2018-03-31T02:30:58.179Z,9.57
2018-03-31T02:33:25.169Z,11.03
2018-03-31T02:35:52.210Z,10.10
2018-03-31T02:38:19.152Z,9.83
2018-03-31T02:40:46.113Z,11.13
2018-03-31T02:43:13.050Z,9.80
2018-03-31T02:45:40.000Z,10.10
2018-03-31T02:48:06.959Z,12.07
2018-03-31T02:50:33.915Z,11.27
2018-03-31T02:53:00.860Z,11.37
2018-03-31T02:55:27.813Z,11.40
2018-03-31T02:57:54.763Z,10.97
2018-03-31T03:00:21.804Z,11.47
2018-03-31T03:02:48.760Z,10.57
2018-03-31T03:05:15.704Z,11.63
2018-03-31T03:07:42.655Z,11.13
2018-03-31T03:10:09.708Z,12.27
2018-03-31T03:12:36.756Z,10.90
2018-03-31T03:15:03.711Z,11.00
2018-03-31T03:17:30.672Z,9.40
2018-03-31T03:19:57.626Z,10.73
2018-03-31T03:22:24.681Z,10.40
2018-03-31T03:24:51.617Z,10.60
2018-03-31T03:27:18.571Z,12.13
2018-03-31T03:29:45.635Z,11.47
2018-03-31T03:32:12.591Z,11.70
2018-03-31T03:34:39.540Z,10.63
2018-03-31T03:37:06.492Z,10.37
2018-03-31T03:39:33.441Z,10.80
2018-03-31T03:42:01.180Z,12.13
2018-03-31T03:44:28.130Z,11.47
2018-03-31T03:46:55.090Z,11.30
2018-03-31T03:49:22.053Z,10.77
2018-03-31T03:51:48.987Z,11.57
2018-03-31T03:54:16.048Z,11.20
2018-03-31T03:56:42.999Z,11.90
2018-03-31T03:59:09.944Z,11.53
2018-03-31T04:01:36.900Z,9.97
2018-03-31T04:04:03.841Z,12.23
2018-03-31T04:06:30.883Z,11.10
2018-03-31T04:08:57.829Z,10.37
2018-03-31T04:11:24.868Z,10.67
2018-03-31T04:13:52.075Z,10.90
2018-03-31T04:16:19.035Z,10.70
2018-03-31T04:18:46.748Z,11.00
2018-03-31T04:21:13.706Z,10.80
2018-03-31T04:23:40.733Z,12.20
2018-03-31T04:26:07.716Z,11.10
2018-03-31T04:28:34.765Z,12.07
2018-03-31T04:31:01.707Z,11.77
2018-03-31T04:33:28.772Z,11.10
2018-03-31T04:35:55.719Z,10.40
2018-03-31T04:38:22.671Z,10.47
2018-03-31T04:40:49.624Z,10.77
2018-03-31T04:43:16.668Z,10.43
2018-03-31T04:45:43.723Z,9.83
2018-03-31T04:48:10.772Z,11.20
2018-03-31T04:50:37.716Z,11.03
2018-03-31T04:53:04.673Z,11.10
2018-03-31T04:55:31.716Z,12.20
2018-03-31T04:57:58.772Z,11.40
2018-03-31T05:00:25.720Z,12.23
2018-03-31T05:02:52.676Z,11.33
2018-03-31T05:05:19.627Z,11.77
2018-03-31T05:07:46.669Z,10.60
2018-03-31T05:10:13.620Z,11.57
2018-03-31T05:12:40.580Z,12.70
2018-03-31T05:15:07.622Z,12.53
2018-03-31T05:17:34.624Z,12.00
2018-03-31T05:20:02.331Z,12.10
2018-03-31T05:22:29.288Z,13.47
2018-03-31T05:24:56.236Z,14.47
2018-03-31T05:27:23.219Z,13.93
2018-03-31T05:29:50.257Z,13.60
2018-03-31T05:32:17.324Z,14.00
2018-03-31T05:34:44.243Z,14.57
2018-03-31T05:37:11.291Z,13.47
2018-03-31T05:39:38.236Z,14.53
2018-03-31T05:42:05.212Z,14.63
2018-03-31T05:44:32.156Z,13.93
2018-03-31T05:46:59.096Z,14.20
2018-03-31T05:49:26.148Z,13.07
2018-03-31T05:51:53.092Z,12.90
2018-03-31T05:54:20.147Z,13.00
2018-03-31T05:56:47.212Z,12.53
2018-03-31T05:59:14.255Z,13.77
2018-03-31T06:01:41.308Z,13.07
2018-03-31T06:04:08.292Z,12.77
2018-03-31T06:06:35.238Z,13.60
2018-03-31T06:09:02.188Z,13.40
2018-03-31T06:11:29.210Z,14.00
2018-03-31T06:13:56.171Z,14.07
2018-03-31T06:16:23.111Z,13.50
2018-03-31T06:18:50.068Z,14.37
2018-03-31T06:21:17.112Z,14.37
2018-03-31T06:23:44.159Z,14.10
2018-03-31T06:26:11.128Z,15.23
2018-03-31T06:28:38.979Z,14.13
2018-03-31T06:31:05.935Z,15.40
2018-03-31T06:33:32.886Z,15.70
2018-03-31T06:35:59.931Z,17.43
2018-03-31T06:38:26.895Z,21.10
2018-03-31T06:40:53.935Z,19.53
2018-03-31T06:43:20.896Z,18.07
2018-03-31T06:45:47.835Z,16.53
2018-03-31T06:48:14.808Z,17.13
2018-03-31T06:50:41.839Z,20.80
2018-03-31T06:53:08.795Z,22.40
2018-03-31T06:55:35.740Z,17.17
2018-03-31T06:58:02.764Z,15.50
2018-03-31T07:00:29.740Z,14.03
2018-03-31T07:02:56.798Z,15.20
2018-03-31T07:05:23.750Z,13.93
2018-03-31T07:07:50.796Z,14.33
2018-03-31T07:10:17.852Z,14.93
2018-03-31T07:12:44.812Z,14.70
2018-03-31T07:15:11.846Z,16.00
2018-03-31T07:17:38.795Z,15.03
2018-03-31T07:20:05.852Z,15.53
2018-03-31T07:22:32.907Z,15.30
2018-03-31T07:24:59.868Z,15.07
2018-03-31T07:27:26.849Z,15.67
2018-03-31T07:29:54.598Z,16.23
2018-03-31T07:32:21.619Z,15.40
2018-03-31T07:34:48.751Z,15.30
2018-03-31T07:37:15.803Z,15.40
2018-03-31T07:39:42.752Z,15.27
2018-03-31T07:42:09.702Z,14.50
2018-03-31T07:44:36.696Z,14.90
2018-03-31T07:47:03.741Z,14.90
2018-03-31T07:49:30.760Z,15.20
2018-03-31T07:51:57.735Z,13.47
2018-03-31T07:54:24.734Z,13.90
2018-03-31T07:56:52.456Z,13.13
2018-03-31T07:59:19.506Z,12.70
2018-03-31T08:01:46.499Z,13.60
2018-03-31T08:04:14.228Z,13.10
2018-03-31T08:06:41.180Z,12.37
2018-03-31T08:09:08.136Z,12.03
2018-03-31T08:11:35.094Z,10.90
2018-03-31T08:14:02.120Z,11.90
2018-03-31T08:16:29.112Z,11.60
2018-03-31T08:18:56.845Z,10.67
2018-03-31T08:21:23.783Z,10.00
2018-03-31T08:23:50.834Z,10.07
2018-03-31T08:26:17.780Z,10.80
2018-03-31T08:28:44.739Z,10.43
2018-03-31T08:31:11.784Z,9.80
2018-03-31T08:33:38.728Z,8.63
2018-03-31T08:36:05.692Z,9.80
2018-03-31T08:38:32.643Z,9.50
2018-03-31T08:40:59.599Z,8.47
2018-03-31T08:43:26.548Z,9.00
2018-03-31T08:45:53.591Z,8.10
2018-03-31T08:48:20.539Z,7.27
2018-03-31T08:50:47.487Z,6.30
2018-03-31T08:53:14.449Z,7.10
2018-03-31T08:55:41.477Z,5.90
2018-03-31T08:58:08.421Z,7.17
2018-03-31T09:00:35.428Z,6.10
2018-03-31T09:03:02.382Z,5.87
2018-03-31T09:05:29.333Z,5.83
2018-03-31T09:07:56.285Z,4.90
2018-03-31T09:10:23.304Z,5.70
2018-03-31T09:12:50.355Z,5.63
2018-03-31T09:15:17.312Z,5.90
2018-03-31T09:17:44.356Z,5.53
2018-03-31T09:20:11.425Z,5.00
2018-03-31T09:22:38.383Z,5.17
2018-03-31T09:25:05.343Z,4.90
2018-03-31T09:27:33.064Z,4.47
2018-03-31T09:30:00.012Z,4.60
2018-03-31T09:32:26.958Z,4.40
2018-03-31T09:34:53.915Z,3.30
2018-03-31T09:37:20.871Z,3.33
2018-03-31T09:39:47.860Z,3.03
2018-03-31T09:42:14.804Z,3.87
2018-03-31T09:44:41.831Z,3.90
2018-03-31T09:47:08.778Z,3.60
2018-03-31T09:49:35.748Z,3.43
2018-03-31T09:52:02.851Z,3.00
2018-03-31T09:54:29.902Z,2.87
2018-03-31T09:56:56.887Z,3.80
2018-03-31T09:59:23.831Z,3.10
2018-03-31T10:01:50.885Z,3.53
2018-03-31T10:04:17.836Z,3.83
2018-03-31T10:06:44.800Z,3.27
2018-03-31T10:09:11.744Z,3.47
2018-03-31T10:11:38.807Z,3.10
2018-03-31T10:14:06.516Z,2.90
2018-03-31T10:16:33.471Z,3.20
2018-03-31T10:19:00.426Z,3.90
2018-03-31T10:21:27.400Z,3.23
2018-03-31T10:23:54.452Z,3.50
2018-03-31T10:26:21.504Z,3.40
2018-03-31T10:28:48.552Z,3.47
2018-03-31T10:31:15.526Z,3.60
2018-03-31T10:33:42.556Z,4.10
2018-03-31T10:36:09.532Z,3.87
2018-03-31T10:38:36.471Z,3.77
2018-03-31T10:41:03.511Z,2.83
2018-03-31T10:43:30.464Z,3.37
2018-03-31T10:45:57.412Z,4.60
2018-03-31T10:48:24.435Z,4.00
2018-03-31T10:50:51.391Z,4.00
2018-03-31T10:53:18.364Z,4.20
2018-03-31T10:55:45.315Z,3.87
2018-03-31T10:58:12.272Z,3.97
2018-03-31T11:00:39.227Z,2.90
2018-03-31T11:03:06.196Z,3.90
2018-03-31T11:05:33.960Z,3.50
2018-03-31T11:08:00.872Z,3.47
2018-03-31T11:10:27.927Z,3.53
2018-03-31T11:12:54.889Z,3.90
2018-03-31T11:15:21.815Z,3.80
2018-03-31T11:17:48.776Z,3.77
2018-03-31T11:20:15.722Z,3.97
2018-03-31T11:22:42.780Z,3.90
2018-03-31T11:25:09.731Z,4.07
2018-03-31T11:27:36.705Z,3.60
2018-03-31T11:30:03.685Z,3.77
2018-03-31T11:32:31.403Z,4.23
2018-03-31T11:34:58.359Z,4.60
2018-03-31T11:37:25.319Z,4.40
2018-03-31T11:39:52.274Z,4.30
2018-03-31T11:42:19.293Z,4.60
2018-03-31T11:44:46.216Z,3.60
2018-03-31T11:47:13.968Z,4.10
2018-03-31T11:49:41.680Z,4.73
2018-03-31T11:52:08.649Z,3.90
2018-03-31T11:54:35.592Z,4.00
2018-03-31T11:57:02.543Z,4.37
2018-03-31T11:59:29.495Z,4.10
2018-03-31T12:01:56.453Z,3.47
2018-03-31T12:04:23.392Z,3.90
2018-03-31T12:06:50.343Z,4.10
2018-03-31T12:09:17.351Z,3.70
2018-03-31T12:11:44.248Z,3.97
2018-03-31T12:14:11.195Z,4.37
2018-03-31T12:16:38.152Z,4.67
2018-03-31T12:19:05.193Z,4.33
2018-03-31T12:21:32.147Z,5.00
2018-03-31T12:23:59.091Z,3.67
2018-03-31T12:26:26.047Z,3.80
2018-03-31T12:28:53.008Z,4.20
2018-03-31T12:31:19.953Z,3.20
2018-03-31T12:33:46.892Z,3.37
2018-03-31T12:36:13.848Z,4.43
2018-03-31T12:38:40.861Z,3.63
2018-03-31T12:41:07.792Z,3.57
2018-03-31T12:43:34.750Z,4.43
2018-03-31T12:46:01.699Z,3.10
2018-03-31T12:48:28.651Z,3.97
2018-03-31T12:50:55.596Z,4.20
2018-03-31T12:53:22.552Z,3.90
2018-03-31T12:55:49.540Z,4.07
2018-03-31T12:58:16.494Z,3.80
2018-03-31T13:00:43.542Z,4.03
2018-03-31T13:03:10.491Z,4.00
2018-03-31T13:05:37.537Z,5.20
2018-03-31T13:08:04.581Z,4.70
2018-03-31T13:10:31.519Z,5.10
2018-03-31T13:12:58.475Z,4.17
2018-03-31T13:15:25.424Z,4.20
2018-03-31T13:17:52.385Z,5.67
2018-03-31T13:20:19.334Z,4.70
2018-03-31T13:22:46.397Z,4.60
2018-03-31T13:25:13.343Z,4.50
2018-03-31T13:27:40.291Z,4.70
2018-03-31T13:30:07.245Z,4.40
2018-03-31T13:32:34.196Z,3.97
2018-03-31T13:35:01.157Z,4.83
2018-03-31T13:37:28.194Z,5.17
2018-03-31T13:39:55.136Z,3.87
2018-03-31T13:42:22.096Z,4.07
2018-03-31T13:44:49.132Z,4.20
2018-03-31T13:47:16.085Z,4.40
2018-03-31T13:49:43.044Z,5.00
2018-03-31T13:52:10.092Z,4.57
2018-03-31T13:54:37.055Z,5.00
2018-03-31T13:57:04.012Z,4.73
2018-03-31T13:59:30.956Z,4.80
2018-03-31T14:01:58.003Z,5.20
2018-03-31T14:04:24.966Z,5.53
2018-03-31T14:06:51.916Z,5.03
2018-03-31T14:09:18.956Z,4.37
2018-03-31T14:11:45.899Z,5.03
2018-03-31T14:14:12.854Z,5.40
2018-03-31T14:16:39.904Z,5.07
2018-03-31T14:19:06.952Z,5.00
2018-03-31T14:21:34.037Z,5.47
2018-03-31T14:24:02.503Z,5.70
2018-03-31T14:26:29.540Z,5.50
2018-03-31T14:28:56.588Z,5.50
2018-03-31T14:31:23.534Z,5.87
2018-03-31T14:33:50.537Z,5.90
2018-03-31T14:36:18.247Z,5.73
2018-03-31T14:38:45.202Z,5.23
2018-03-31T14:41:12.255Z,4.90
2018-03-31T14:43:39.191Z,4.83
2018-03-31T14:46:06.196Z,4.97
2018-03-31T14:48:33.150Z,4.00
2018-03-31T14:51:00.097Z,4.77
2018-03-31T14:53:27.068Z,5.40
2018-03-31T14:55:54.804Z,4.50
2018-03-31T14:58:21.780Z,4.40
2018-03-31T15:00:49.497Z,4.20
2018-03-31T15:03:16.556Z,3.40
2018-03-31T15:05:43.531Z,3.40
2018-03-31T15:08:10.662Z,3.70
2018-03-31T15:10:37.638Z,4.30
2018-03-31T15:13:04.568Z,8.60
2018-03-31T15:15:31.620Z,9.37
2018-03-31T15:17:59.388Z,4.20
2018-03-31T15:20:26.331Z,5.43
2018-03-31T15:22:53.288Z,4.57
2018-03-31T15:25:20.400Z,4.67
2018-03-31T15:27:47.353Z,3.80
2018-03-31T15:30:14.359Z,3.10
2018-03-31T15:32:41.306Z,3.40
2018-03-31T15:35:08.264Z,3.27
2018-03-31T15:37:35.211Z,3.80
2018-03-31T15:40:02.194Z,3.90
2018-03-31T15:42:29.907Z,4.10
2018-03-31T15:44:56.888Z,4.37
2018-03-31T15:47:23.844Z,5.20
2018-03-31T15:49:51.661Z,6.90
2018-03-31T15:52:18.696Z,8.83
2018-03-31T15:54:45.657Z,6.60
2018-03-31T15:57:12.599Z,5.70
2018-03-31T15:59:39.567Z,4.10
2018-03-31T16:02:06.533Z,5.20
2018-03-31T16:04:33.492Z,3.77
2018-03-31T16:07:00.458Z,4.03
2018-03-31T16:09:27.395Z,3.40
2018-03-31T16:11:54.355Z,3.30
2018-03-31T16:14:22.151Z,5.10
2018-03-31T16:16:49.933Z,2.87
2018-03-31T16:19:16.884Z,2.70
2018-03-31T16:21:43.832Z,2.73
2018-03-31T16:24:10.797Z,6.40
2018-03-31T16:26:37.781Z,10.30
2018-03-31T16:29:04.735Z,8.20
2018-03-31T16:31:31.692Z,4.70
2018-03-31T16:33:58.667Z,5.50
2018-03-31T16:36:25.615Z,5.33
2018-03-31T16:38:52.645Z,5.10
2018-03-31T16:41:19.595Z,10.20
2018-03-31T16:43:46.556Z,12.20
2018-03-31T16:46:14.278Z,7.57
2018-03-31T16:48:41.289Z,4.27
2018-03-31T16:51:08.365Z,4.63
2018-03-31T16:53:35.307Z,4.23
2018-03-31T16:56:02.268Z,4.10
2018-03-31T16:58:29.269Z,4.60
2018-03-31T17:00:56.949Z,4.80
2018-03-31T17:03:24.674Z,5.20
2018-03-31T17:05:51.636Z,4.60
2018-03-31T17:08:18.584Z,3.93
2018-03-31T17:10:45.540Z,3.90
2018-03-31T17:13:12.486Z,5.47
2018-03-31T17:15:39.489Z,14.00
2018-03-31T17:18:06.439Z,13.70
2018-03-31T17:20:33.386Z,12.13
2018-03-31T17:23:00.348Z,12.30
2018-03-31T17:25:27.309Z,6.40
2018-03-31T17:27:54.258Z,6.77
2018-03-31T17:30:21.226Z,5.40
2018-03-31T17:32:48.241Z,5.33
2018-03-31T17:35:15.293Z,6.83
2018-03-31T17:37:42.227Z,6.10
2018-03-31T17:40:09.200Z,6.90
2018-03-31T17:42:36.166Z,6.57
2018-03-31T17:45:03.123Z,5.50
2018-03-31T17:47:30.068Z,5.73
2018-03-31T17:49:57.020Z,5.87
2018-03-31T17:52:23.975Z,6.03
2018-03-31T17:54:50.948Z,6.47
2018-03-31T17:57:17.895Z,6.57
2018-03-31T17:59:44.864Z,7.33
2018-03-31T18:02:12.581Z,7.90
2018-03-31T18:04:39.535Z,6.83
2018-03-31T18:07:06.562Z,8.40
2018-03-31T18:09:33.523Z,8.43
2018-03-31T18:12:00.480Z,9.47
2018-03-31T18:14:27.516Z,9.03
2018-03-31T18:16:54.471Z,8.63
2018-03-31T18:19:21.408Z,9.87
2018-03-31T18:21:48.468Z,9.33
2018-03-31T18:24:15.415Z,9.70
2018-03-31T18:26:42.377Z,9.23
2018-03-31T18:29:09.336Z,8.70
2018-03-31T18:31:37.059Z,8.83
2018-03-31T18:34:04.878Z,8.80
2018-03-31T18:36:31.848Z,9.17
2018-03-31T18:38:58.797Z,9.03
2018-03-31T18:41:25.875Z,9.53
2018-03-31T18:43:53.603Z,8.60
2018-03-31T18:46:20.597Z,9.63
2018-03-31T18:48:48.323Z,10.20
2018-03-31T18:51:15.301Z,9.13
2018-03-31T18:53:43.780Z,10.27
2018-03-31T18:56:10.759Z,10.47
2018-03-31T18:58:38.596Z,9.80
2018-03-31T19:01:05.638Z,10.87
2018-03-31T19:03:32.599Z,10.53
2018-03-31T19:05:59.551Z,10.80
2018-03-31T19:08:26.496Z,11.40
2018-03-31T19:10:53.480Z,10.57
2018-03-31T19:13:21.209Z,12.47
2018-03-31T19:15:48.158Z,9.40
2018-03-31T19:18:15.119Z,9.50
2018-03-31T19:20:42.153Z,8.30
2018-03-31T19:23:09.196Z,7.53
2018-03-31T19:25:36.151Z,7.90
2018-03-31T19:28:03.096Z,8.00
2018-03-31T19:30:35.671Z,7.83
2018-03-31T19:33:02.656Z,9.13
2018-03-31T19:38:28.386Z,14.50
2018-03-31T19:40:55.371Z,27.43
2018-03-31T19:43:22.316Z,11.90
2018-03-31T19:45:49.274Z,13.73
2018-03-31T19:48:16.235Z,9.20
2018-03-31T19:50:43.208Z,9.50
2018-03-31T19:53:10.156Z,8.37
2018-03-31T19:55:37.108Z,6.43
2018-03-31T19:58:04.056Z,7.37
2018-03-31T20:00:31.016Z,27.40
2018-03-31T20:02:57.964Z,15.90
2018-03-31T20:05:25.000Z,17.97
2018-03-31T20:07:52.004Z,18.47
2018-03-31T20:10:19.765Z,16.73
2018-03-31T20:12:46.771Z,32.20
2018-03-31T20:15:13.736Z,19.53
2018-03-31T20:17:40.695Z,16.97
2018-03-31T20:20:07.656Z,14.90
2018-03-31T20:22:34.620Z,16.37
2018-03-31T20:25:02.352Z,15.40
2018-03-31T20:27:29.338Z,13.10
2018-03-31T20:29:57.067Z,12.10
2018-03-31T20:32:24.018Z,9.57
2018-03-31T20:34:51.012Z,9.80
2018-03-31T20:37:18.752Z,9.30
2018-03-31T20:39:45.700Z,9.00
2018-03-31T20:42:12.703Z,10.13
2018-03-31T20:44:39.666Z,9.80
2018-03-31T20:47:06.615Z,10.70
2018-03-31T20:49:33.579Z,9.30
2018-03-31T20:52:00.528Z,9.23
2018-03-31T20:54:27.553Z,10.10
2018-03-31T20:56:54.495Z,10.30
2018-03-31T20:59:21.444Z,11.47
2018-03-31T21:01:48.419Z,11.40
2018-03-31T21:04:15.377Z,12.00
2018-03-31T21:06:42.365Z,12.13
2018-03-31T21:09:09.356Z,13.13
2018-03-31T21:11:36.312Z,12.57
2018-03-31T21:14:03.296Z,13.10
2018-03-31T21:16:30.249Z,13.00
2018-03-31T21:18:57.259Z,12.37
2018-03-31T21:21:24.234Z,12.40
2018-03-31T21:23:51.172Z,13.73
2018-03-31T21:26:18.157Z,14.70
2018-03-31T21:28:45.105Z,13.40
2018-03-31T21:31:12.079Z,14.30
2018-03-31T21:33:39.048Z,15.70
2018-03-31T21:36:06.743Z,14.40
2018-03-31T21:38:33.704Z,16.10
2018-03-31T21:41:00.751Z,15.37
2018-03-31T21:43:27.716Z,15.00
2018-03-31T21:45:54.674Z,15.27
2018-03-31T21:48:21.632Z,15.63
2018-03-31T21:50:48.580Z,15.43
2018-03-31T21:53:15.542Z,30.10
2018-03-31T21:55:43.256Z,15.27
2018-03-31T21:58:10.348Z,14.80
2018-03-31T22:00:37.371Z,55.67
2018-03-31T22:03:04.339Z,20.73
2018-03-31T22:05:31.390Z,17.00
2018-03-31T22:07:58.339Z,17.50
2018-03-31T22:10:25.297Z,18.40
2018-03-31T22:12:52.281Z,19.03
2018-03-31T22:18:21.752Z,17.90
2018-03-31T22:20:48.709Z,16.43
2018-03-31T22:23:15.676Z,16.60
2018-03-31T22:25:42.624Z,14.47
2018-03-31T22:28:09.588Z,14.60
2018-03-31T22:30:37.316Z,13.13
2018-03-31T22:33:04.271Z,14.10
2018-03-31T22:35:31.219Z,14.80
2018-03-31T22:37:58.180Z,14.23
2018-03-31T22:40:25.129Z,14.23
2018-03-31T22:42:52.188Z,15.27
2018-03-31T22:45:19.203Z,15.10
2018-03-31T22:47:46.160Z,17.90
2018-03-31T22:50:13.211Z,18.23
2018-03-31T22:52:40.168Z,18.90
2018-03-31T22:55:07.213Z,17.37
2018-03-31T22:57:34.163Z,16.43
2018-03-31T23:00:01.207Z,15.50
2018-03-31T23:02:28.199Z,14.70
2018-03-31T23:04:55.918Z,14.30
2018-03-31T23:07:22.882Z,14.70
2018-03-31T23:09:49.826Z,15.57
2018-03-31T23:12:16.805Z,12.90
2018-03-31T23:14:43.751Z,15.70
2018-03-31T23:17:10.784Z,15.00
2018-03-31T23:19:37.746Z,15.10
2018-03-31T23:22:04.793Z,14.87
2018-03-31T23:24:31.767Z,15.30
2018-03-31T23:26:58.711Z,14.53
2018-03-31T23:29:25.705Z,14.80
2018-03-31T23:31:52.614Z,14.47
2018-03-31T23:34:19.575Z,14.57
2018-03-31T23:36:47.303Z,15.10
2018-03-31T23:39:14.259Z,15.73
2018-03-31T23:41:41.224Z,15.37
2018-03-31T23:44:08.186Z,16.13
2018-03-31T23:46:35.216Z,15.83
2018-03-31T23:49:02.251Z,16.03
2018-03-31T23:51:29.195Z,15.30
2018-03-31T23:53:56.269Z,15.60
2018-03-31T23:56:23.317Z,14.90
2018-03-31T23:58:50.371Z,17.00
